Time;durP1;ratioP1;P1;durP2;ratioP2;P2;SDS_P1;SDS_P2;PMS_P1;PMS_P2;Temp;Humidity;BMP_temperature;BMP_pressure;BME280_temperature;BME280_humidity;BME280_pressure;Samples;Min_cycle;Max_cycle;Signal;HPM_P1;HPM_P2
2022/03/11 00:00:24;;;;;;;14.47;9.43;;;6.30;89.70;;;;;;5099266;28;20055;-75
2022/03/11 00:02:50;;;;;;;15.17;10.20;;;6.30;90.10;;;;;;5099312;28;20052;-76
2022/03/11 00:05:17;;;;;;;13.73;8.73;;;6.20;90.10;;;;;;5103785;28;20044;-78
2022/03/11 00:07:43;;;;;;;16.10;10.73;;;6.20;90.40;;;;;;5103619;28;20124;-77
2022/03/11 00:10:10;;;;;;;14.50;9.53;;;6.20;90.40;;;;;;5098314;28;20419;-76
2022/03/11 00:12:36;;;;;;;14.83;10.37;;;6.10;90.50;;;;;;5102429;28;20115;-76
2022/03/11 00:15:02;;;;;;;15.37;10.30;;;6.10;90.60;;;;;;5095145;28;20073;-76
2022/03/11 00:17:28;;;;;;;16.30;9.80;;;6.10;90.70;;;;;;5100858;28;20173;-76
2022/03/11 00:19:54;;;;;;;14.10;9.17;;;6.00;90.90;;;;;;5085608;28;20071;-76
2022/03/11 00:22:21;;;;;;;13.80;9.27;;;6.00;91.00;;;;;;5102616;28;20044;-75
2022/03/11 00:24:47;;;;;;;13.10;9.77;;;6.00;91.20;;;;;;5096020;28;20084;-75
2022/03/11 00:27:12;;;;;;;16.70;9.87;;;6.00;91.30;;;;;;5100835;28;20047;-75
2022/03/11 00:29:38;;;;;;;13.23;9.03;;;5.90;91.30;;;;;;5100996;28;20048;-76
2022/03/11 00:32:05;;;;;;;14.00;8.93;;;5.90;91.50;;;;;;5095205;28;20066;-76
2022/03/11 00:34:31;;;;;;;16.03;8.93;;;5.90;91.60;;;;;;5083201;28;20051;-75
2022/03/11 00:36:58;;;;;;;15.87;9.53;;;5.90;91.60;;;;;;5097024;28;20036;-75
2022/03/11 00:39:25;;;;;;;16.80;10.03;;;5.80;91.80;;;;;;5095176;28;20051;-76
2022/03/11 00:41:51;;;;;;;14.50;9.97;;;5.70;92.00;;;;;;5100855;28;20051;-75
2022/03/11 00:44:17;;;;;;;15.93;9.27;;;5.60;92.20;;;;;;5097125;28;20036;-78
2022/03/11 00:46:42;;;;;;;15.17;8.83;;;5.50;92.60;;;;;;5111846;28;20128;-75
2022/03/11 00:49:08;;;;;;;16.20;9.40;;;5.40;93.00;;;;;;5077948;28;20462;-75
2022/03/11 00:51:34;;;;;;;15.90;9.13;;;5.40;93.70;;;;;;5090050;28;20032;-77
2022/03/11 00:54:00;;;;;;;12.40;8.30;;;5.30;93.60;;;;;;5100252;28;20097;-76
2022/03/11 00:56:30;;;;;;;15.70;9.07;;;5.30;94.00;;;;;;5097553;28;20507;-75
2022/03/11 00:58:56;;;;;;;16.13;9.07;;;5.30;94.40;;;;;;5101792;28;20040;-75
2022/03/11 01:01:22;;;;;;;13.87;8.27;;;5.20;94.50;;;;;;5101449;28;20028;-76
2022/03/11 01:03:47;;;;;;;13.33;8.73;;;5.20;94.90;;;;;;5098771;28;20039;-75
2022/03/11 01:06:13;;;;;;;12.43;8.60;;;5.20;95.10;;;;;;5097209;28;20028;-75
2022/03/11 01:08:39;;;;;;;17.30;8.30;;;5.10;95.20;;;;;;5090959;28;20056;-75
2022/03/11 01:11:08;;;;;;;15.33;8.57;;;5.10;95.30;;;;;;5093396;28;20059;-77
2022/03/11 01:13:35;;;;;;;15.87;8.60;;;5.10;95.60;;;;;;5104992;28;20044;-75
2022/03/11 01:16:01;;;;;;;16.47;9.47;;;5.10;96.00;;;;;;5082362;28;20060;-77
2022/03/11 01:18:27;;;;;;;12.73;8.57;;;5.10;96.20;;;;;;5102092;28;20043;-76
2022/03/11 01:20:53;;;;;;;14.87;9.07;;;5.00;96.50;;;;;;5104298;28;20058;-75
2022/03/11 01:23:19;;;;;;;12.80;8.53;;;5.00;96.80;;;;;;5101158;28;20068;-77
2022/03/11 01:25:45;;;;;;;15.30;8.93;;;5.00;97.00;;;;;;5104345;28;20047;-78
2022/03/11 01:28:11;;;;;;;14.90;8.77;;;4.90;97.10;;;;;;5105179;28;20070;-75
2022/03/11 01:30:38;;;;;;;13.17;8.37;;;4.90;97.30;;;;;;5104881;28;20396;-75
2022/03/11 01:33:03;;;;;;;13.30;8.60;;;4.90;97.60;;;;;;5098008;28;20044;-76
2022/03/11 01:35:30;;;;;;;15.47;9.13;;;4.90;97.90;;;;;;5100147;28;20665;-76
2022/03/11 01:37:57;;;;;;;16.77;9.57;;;4.90;98.10;;;;;;5101251;28;20303;-75
2022/03/11 01:40:23;;;;;;;17.37;8.77;;;4.90;98.30;;;;;;5104257;28;20372;-75
2022/03/11 01:42:48;;;;;;;14.27;8.60;;;4.80;98.50;;;;;;5104152;28;20119;-76
2022/03/11 01:45:14;;;;;;;15.07;8.57;;;4.80;98.80;;;;;;5096864;28;20484;-75
2022/03/11 01:47:43;;;;;;;14.57;8.67;;;4.80;99.20;;;;;;5093937;28;20099;-76
2022/03/11 01:50:09;;;;;;;14.93;8.40;;;4.80;99.30;;;;;;5104039;28;20086;-75
2022/03/11 01:52:38;;;;;;;15.50;9.37;;;4.70;99.60;;;;;;5097441;28;20302;-75
2022/03/11 01:55:04;;;;;;;14.53;8.87;;;4.70;99.80;;;;;;5103932;28;20310;-75
2022/03/11 01:57:33;;;;;;;13.27;8.83;;;4.70;99.90;;;;;;5099794;28;20317;-75
2022/03/11 01:59:59;;;;;;;14.40;9.13;;;4.60;99.90;;;;;;5103045;28;20309;-75
2022/03/11 02:02:25;;;;;;;15.77;9.73;;;4.60;99.90;;;;;;5103034;28;20306;-75
2022/03/11 02:04:52;;;;;;;14.00;8.57;;;4.60;99.90;;;;;;5101106;28;20315;-75
2022/03/11 02:07:19;;;;;;;15.10;8.90;;;4.60;99.90;;;;;;5102617;28;20116;-75
2022/03/11 02:09:45;;;;;;;14.83;9.50;;;4.60;99.90;;;;;;5103500;28;20308;-75
2022/03/11 02:12:11;;;;;;;14.73;9.20;;;4.60;99.90;;;;;;5100988;28;20306;-75
2022/03/11 02:14:36;;;;;;;16.00;9.30;;;4.60;99.90;;;;;;5103179;28;20119;-77
2022/03/11 02:17:03;;;;;;;15.27;9.67;;;4.60;99.90;;;;;;5101214;28;20173;-75
2022/03/11 02:19:28;;;;;;;14.30;9.43;;;4.60;99.90;;;;;;5103394;28;20550;-77
2022/03/11 02:21:58;;;;;;;17.03;9.63;;;4.60;99.90;;;;;;5104206;28;20286;-75
2022/03/11 02:24:27;;;;;;;17.10;9.83;;;4.60;99.90;;;;;;5103050;28;20054;-75
2022/03/11 02:26:53;;;;;;;16.83;9.67;;;4.60;99.90;;;;;;5089480;28;20338;-75
2022/03/11 02:29:19;;;;;;;17.10;10.97;;;4.60;99.90;;;;;;5098324;28;20294;-76
2022/03/11 02:31:47;;;;;;;18.40;10.30;;;4.60;99.90;;;;;;5096463;28;20306;-76
2022/03/11 02:34:13;;;;;;;16.50;10.10;;;4.60;99.90;;;;;;5103342;28;20289;-75
2022/03/11 02:36:39;;;;;;;17.83;11.10;;;4.60;99.90;;;;;;5095793;28;20044;-74
2022/03/11 02:39:06;;;;;;;14.13;10.23;;;4.60;99.90;;;;;;5103513;28;20043;-75
2022/03/11 02:41:33;;;;;;;18.50;11.13;;;4.60;99.90;;;;;;5102940;28;20139;-75
2022/03/11 02:43:59;;;;;;;14.73;10.03;;;4.60;99.90;;;;;;5096402;28;20302;-74
2022/03/11 02:46:24;;;;;;;22.00;11.23;;;4.60;99.90;;;;;;5097886;28;20674;-77
2022/03/11 02:48:50;;;;;;;16.93;10.80;;;4.60;99.90;;;;;;5103838;28;20089;-76
2022/03/11 02:51:16;;;;;;;19.37;10.83;;;4.60;99.90;;;;;;5098980;28;20123;-75
2022/03/11 02:53:42;;;;;;;19.57;11.07;;;4.60;99.90;;;;;;5096919;28;20036;-75
2022/03/11 02:56:09;;;;;;;16.80;10.67;;;4.60;99.90;;;;;;5099634;28;20048;-74
2022/03/11 02:58:37;;;;;;;18.27;12.37;;;4.60;99.90;;;;;;5099743;28;20074;-75
2022/03/11 03:01:03;;;;;;;19.23;11.97;;;4.60;99.90;;;;;;5102636;28;20297;-75
2022/03/11 03:03:29;;;;;;;18.57;12.33;;;4.50;99.90;;;;;;5102050;28;20302;-75
2022/03/11 03:05:54;;;;;;;17.10;11.73;;;4.50;99.90;;;;;;5102701;28;20882;-76
2022/03/11 03:08:20;;;;;;;17.70;11.87;;;4.40;99.90;;;;;;5102034;28;20044;-74
2022/03/11 03:10:50;;;;;;;22.17;12.70;;;4.40;99.90;;;;;;5086499;28;20063;-75
2022/03/11 03:13:16;;;;;;;19.93;11.67;;;4.40;99.90;;;;;;5092649;28;20299;-76
2022/03/11 03:15:43;;;;;;;19.87;12.47;;;4.30;99.90;;;;;;5101469;28;20118;-75
2022/03/11 03:18:09;;;;;;;21.67;12.30;;;4.40;99.90;;;;;;5102901;28;20044;-76
2022/03/11 03:20:35;;;;;;;21.87;12.90;;;4.40;99.90;;;;;;5098009;28;20332;-75
2022/03/11 03:23:00;;;;;;;20.13;12.67;;;4.40;99.90;;;;;;5101762;28;20135;-76
2022/03/11 03:25:26;;;;;;;21.13;12.57;;;4.40;99.90;;;;;;5102619;28;20055;-75
2022/03/11 03:27:52;;;;;;;21.30;13.63;;;4.40;99.90;;;;;;5101084;28;20165;-76
2022/03/11 03:30:19;;;;;;;23.93;13.00;;;4.40;99.90;;;;;;5105758;28;20040;-76
2022/03/11 03:32:46;;;;;;;22.77;14.10;;;4.40;99.90;;;;;;5101195;28;20044;-78
2022/03/11 03:35:12;;;;;;;22.27;13.63;;;4.30;99.90;;;;;;5102427;28;20328;-75
2022/03/11 03:37:38;;;;;;;28.33;14.23;;;4.30;99.90;;;;;;5101527;28;20329;-75
2022/03/11 03:40:05;;;;;;;21.17;13.40;;;4.20;99.90;;;;;;5101146;28;20329;-75
2022/03/11 03:42:31;;;;;;;19.47;13.53;;;4.40;99.90;;;;;;5102000;28;20044;-75
2022/03/11 03:44:57;;;;;;;22.10;13.67;;;4.30;99.90;;;;;;5102928;28;20301;-78
2022/03/11 03:47:24;;;;;;;23.47;13.80;;;4.30;99.90;;;;;;5097623;28;20451;-76
2022/03/11 03:49:51;;;;;;;24.47;14.67;;;4.30;99.90;;;;;;5096645;28;20344;-74
2022/03/11 03:52:17;;;;;;;22.90;13.70;;;4.20;99.90;;;;;;5099784;28;20105;-75
2022/03/11 03:54:44;;;;;;;24.43;13.53;;;4.20;99.90;;;;;;5101351;28;20346;-77
2022/03/11 03:57:10;;;;;;;21.77;13.50;;;4.20;99.90;;;;;;5097297;28;20301;-75
2022/03/11 03:59:37;;;;;;;24.93;14.73;;;4.10;99.90;;;;;;5101458;28;20298;-75
2022/03/11 04:02:03;;;;;;;23.00;14.53;;;4.10;99.90;;;;;;5100784;28;20067;-75
2022/03/11 04:04:31;;;;;;;24.97;14.83;;;4.00;99.90;;;;;;5101400;28;20800;-75
2022/03/11 04:06:58;;;;;;;25.93;14.83;;;4.00;99.90;;;;;;5099659;28;20423;-75
2022/03/11 04:09:24;;;;;;;27.13;15.67;;;3.90;99.90;;;;;;5094131;28;20337;-75
2022/03/11 04:11:50;;;;;;;25.30;15.60;;;3.90;99.90;;;;;;5100908;28;20314;-77
2022/03/11 04:14:16;;;;;;;24.83;15.60;;;3.80;99.90;;;;;;5100564;28;20047;-76
2022/03/11 04:16:42;;;;;;;25.30;15.37;;;3.80;99.90;;;;;;5102544;28;20073;-75
2022/03/11 04:19:07;;;;;;;26.63;16.57;;;3.70;99.90;;;;;;5100901;28;20226;-74
2022/03/11 04:21:34;;;;;;;27.80;17.07;;;3.70;99.90;;;;;;5093695;28;20325;-75
2022/03/11 04:24:02;;;;;;;26.20;15.93;;;3.60;99.90;;;;;;5100686;28;20039;-76
2022/03/11 04:26:27;;;;;;;27.30;16.90;;;3.60;99.90;;;;;;5101581;28;20310;-75
2022/03/11 04:28:53;;;;;;;29.20;16.30;;;3.60;99.90;;;;;;5102142;28;20297;-74
2022/03/11 04:31:19;;;;;;;26.57;16.43;;;3.60;99.90;;;;;;5100150;28;20044;-75
2022/03/11 04:33:45;;;;;;;27.33;15.23;;;3.60;99.90;;;;;;5096827;28;20048;-76
2022/03/11 04:36:11;;;;;;;32.27;15.23;;;3.60;99.90;;;;;;5084280;28;20044;-77
2022/03/11 04:38:37;;;;;;;25.27;15.43;;;3.60;99.90;;;;;;5097220;28;20033;-75
2022/03/11 04:41:05;;;;;;;24.80;17.10;;;3.50;99.90;;;;;;5099897;28;20863;-75
2022/03/11 04:43:31;;;;;;;29.10;17.17;;;3.50;99.90;;;;;;5100870;28;20308;-75
2022/03/11 04:45:57;;;;;;;27.77;17.33;;;3.50;99.90;;;;;;5098488;28;20318;-75
2022/03/11 04:48:23;;;;;;;29.93;16.77;;;3.50;99.90;;;;;;5096177;28;20662;-76
2022/03/11 04:50:49;;;;;;;28.67;16.57;;;3.40;99.90;;;;;;5086118;28;20473;-76
2022/03/11 04:53:15;;;;;;;29.43;16.70;;;3.40;99.90;;;;;;5103883;28;20049;-74
2022/03/11 04:55:41;;;;;;;27.20;18.40;;;3.50;99.90;;;;;;5104954;28;20302;-75
2022/03/11 04:58:08;;;;;;;27.40;16.97;;;3.40;99.90;;;;;;5100351;28;20055;-76
2022/03/11 05:00:35;;;;;;;29.90;17.50;;;3.40;99.90;;;;;;5098833;28;20075;-75
2022/03/11 05:03:01;;;;;;;28.03;18.03;;;3.40;99.90;;;;;;5107227;28;20378;-80
2022/03/11 05:05:26;;;;;;;32.43;18.73;;;3.40;99.90;;;;;;5099539;28;20342;-75
2022/03/11 05:07:54;;;;;;;30.20;18.00;;;3.40;99.90;;;;;;5102487;28;20052;-77
2022/03/11 05:10:20;;;;;;;30.53;18.33;;;3.40;99.90;;;;;;5102820;28;20336;-75
2022/03/11 05:12:46;;;;;;;31.07;18.10;;;3.40;99.90;;;;;;5100362;28;20325;-75
2022/03/11 05:15:14;;;;;;;33.73;18.83;;;3.40;99.90;;;;;;5095082;28;20297;-75
2022/03/11 05:17:40;;;;;;;32.23;18.53;;;3.40;99.90;;;;;;5095789;28;20310;-76
2022/03/11 05:20:06;;;;;;;29.73;18.07;;;3.30;99.90;;;;;;5103540;28;20329;-75
2022/03/11 05:22:33;;;;;;;30.30;18.63;;;3.40;99.90;;;;;;5102394;28;20044;-76
2022/03/11 05:24:59;;;;;;;27.80;18.03;;;3.30;99.90;;;;;;5103742;28;20298;-76
2022/03/11 05:27:25;;;;;;;27.13;17.03;;;3.30;99.90;;;;;;5098036;28;20301;-75
2022/03/11 05:29:51;;;;;;;30.00;14.87;;;3.30;99.90;;;;;;5095234;28;20297;-76
2022/03/11 05:32:20;;;;;;;30.67;18.93;;;3.30;99.90;;;;;;5103529;28;20040;-76
2022/03/11 05:34:46;;;;;;;30.90;17.33;;;3.50;99.90;;;;;;5104220;28;20043;-76
2022/03/11 05:37:12;;;;;;;26.63;16.43;;;3.30;99.90;;;;;;5104216;28;20381;-77
2022/03/11 05:39:38;;;;;;;27.17;16.20;;;3.30;99.90;;;;;;5098264;28;20328;-75
2022/03/11 05:42:05;;;;;;;32.60;18.23;;;3.30;99.90;;;;;;5103914;28;20055;-75
2022/03/11 05:44:31;;;;;;;30.60;18.50;;;3.30;99.90;;;;;;5103464;28;20800;-75
2022/03/11 05:46:58;;;;;;;28.53;18.40;;;3.20;99.90;;;;;;5098250;28;20306;-76
2022/03/11 05:49:26;;;;;;;30.30;19.03;;;3.20;99.90;;;;;;5096941;28;20293;-75
2022/03/11 05:51:52;;;;;;;33.60;18.83;;;3.10;99.90;;;;;;5103438;28;20048;-75
2022/03/11 05:54:17;;;;;;;31.67;19.13;;;3.10;99.90;;;;;;5099997;28;20301;-75
2022/03/11 05:56:43;;;;;;;30.83;18.00;;;3.10;99.90;;;;;;5103259;28;20044;-75
2022/03/11 05:59:12;;;;;;;33.37;19.43;;;3.20;99.90;;;;;;5103458;28;20044;-74
2022/03/11 06:01:37;;;;;;;33.03;19.80;;;3.00;99.90;;;;;;5065521;28;20322;-75
2022/03/11 06:04:04;;;;;;;30.70;18.13;;;3.00;99.90;;;;;;5101644;28;20286;-75
2022/03/11 06:06:32;;;;;;;32.80;16.33;;;3.00;99.90;;;;;;5100527;28;20048;-75
2022/03/11 06:08:59;;;;;;;28.73;17.80;;;3.10;99.90;;;;;;5103992;28;20322;-74
2022/03/11 06:11:27;;;;;;;32.57;19.03;;;3.00;99.90;;;;;;5101924;28;20972;-75
2022/03/11 06:13:53;;;;;;;31.00;19.43;;;3.00;99.90;;;;;;5079725;28;20350;-74
2022/03/11 06:16:18;;;;;;;32.23;18.87;;;3.00;99.90;;;;;;5102739;28;20340;-75
2022/03/11 06:18:44;;;;;;;30.50;18.97;;;3.00;99.90;;;;;;5102536;28;20040;-74
2022/03/11 06:21:11;;;;;;;32.33;19.07;;;3.00;99.90;;;;;;5098906;28;20047;-75
2022/03/11 06:23:38;;;;;;;30.20;19.17;;;3.00;99.90;;;;;;5095708;28;20032;-75
2022/03/11 06:26:04;;;;;;;30.47;19.27;;;3.10;99.90;;;;;;5092787;28;20321;-74
2022/03/11 06:28:30;;;;;;;30.83;19.23;;;3.10;99.90;;;;;;5101417;28;20303;-75
2022/03/11 06:30:56;;;;;;;32.13;19.67;;;3.10;99.90;;;;;;5089157;28;20089;-76
2022/03/11 06:33:22;;;;;;;31.70;19.43;;;3.10;99.90;;;;;;5092008;28;20310;-75
2022/03/11 06:35:48;;;;;;;31.77;18.50;;;3.20;99.90;;;;;;5099147;28;20044;-75
2022/03/11 06:38:14;;;;;;;31.23;19.70;;;3.20;99.90;;;;;;5079024;28;20050;-77
2022/03/11 06:40:42;;;;;;;30.13;18.90;;;3.20;99.90;;;;;;5093794;28;20302;-75
2022/03/11 06:43:08;;;;;;;32.20;19.63;;;3.20;99.90;;;;;;5117010;27;20331;-75
2022/03/11 06:45:33;;;;;;;30.87;18.43;;;3.20;99.90;;;;;;5090565;28;20310;-75
2022/03/11 06:48:04;;;;;;;29.93;18.93;;;3.30;99.90;;;;;;5091596;28;20065;-75
2022/03/11 06:50:30;;;;;;;31.77;19.70;;;3.30;99.90;;;;;;5096763;28;20336;-77
2022/03/11 06:52:56;;;;;;;32.33;19.37;;;3.30;99.90;;;;;;5092620;28;20044;-76
2022/03/11 06:55:22;;;;;;;32.57;18.87;;;3.30;99.90;;;;;;5097401;28;20051;-75
2022/03/11 06:57:49;;;;;;;33.30;19.57;;;3.40;99.90;;;;;;5088972;28;20031;-74
2022/03/11 07:00:16;;;;;;;28.37;17.77;;;3.70;99.90;;;;;;5093623;28;20093;-75
2022/03/11 07:02:43;;;;;;;29.40;17.97;;;4.10;99.90;;;;;;5088280;28;20332;-75
2022/03/11 07:05:09;;;;;;;31.40;17.63;;;4.40;99.90;;;;;;5087555;28;20309;-76
2022/03/11 07:07:36;;;;;;;26.87;15.70;;;4.60;99.90;;;;;;5088933;28;20041;-73
2022/03/11 07:10:03;;;;;;;29.90;18.23;;;4.60;99.90;;;;;;5089711;28;20341;-75
2022/03/11 07:12:30;;;;;;;30.47;17.47;;;4.50;99.90;;;;;;5079725;28;20302;-75
2022/03/11 07:15:04;;;;;;;25.87;16.70;;;4.90;99.90;;;;;;5088156;28;20848;-75
2022/03/11 07:17:31;;;;;;;29.60;17.47;;;5.90;99.90;;;;;;5085651;28;20329;-76
2022/03/11 07:19:57;;;;;;;25.97;16.37;;;6.70;99.90;;;;;;5090698;28;20302;-76
2022/03/11 07:22:23;;;;;;;25.43;17.33;;;7.50;99.70;;;;;;5090465;28;20317;-74
2022/03/11 07:24:49;;;;;;;27.47;16.83;;;8.00;97.80;;;;;;5089161;28;20505;-77
2022/03/11 07:27:15;;;;;;;25.90;17.00;;;7.70;96.80;;;;;;5088960;28;20129;-77
2022/03/11 07:29:41;;;;;;;27.73;15.20;;;7.20;96.40;;;;;;5087821;28;20491;-77
2022/03/11 07:32:10;;;;;;;20.13;12.40;;;6.70;96.90;;;;;;5088098;28;20036;-76
2022/03/11 07:34:36;;;;;;;28.73;17.50;;;6.40;97.80;;;;;;5091643;28;20087;-76
2022/03/11 07:37:02;;;;;;;29.80;18.13;;;6.20;98.50;;;;;;5090303;28;20029;-76
2022/03/11 07:39:27;;;;;;;32.40;18.47;;;6.10;98.80;;;;;;5086667;28;20043;-76
2022/03/11 07:41:53;;;;;;;31.77;18.03;;;6.30;99.20;;;;;;5091078;28;20044;-76
2022/03/11 07:44:20;;;;;;;27.30;16.33;;;6.70;98.40;;;;;;5082358;28;20129;-77
2022/03/11 07:46:46;;;;;;;27.07;16.83;;;7.10;97.30;;;;;;5092804;28;20055;-76
2022/03/11 07:49:14;;;;;;;28.33;16.30;;;7.50;96.50;;;;;;5090044;28;20301;-79
2022/03/11 07:51:40;;;;;;;24.37;16.80;;;8.00;95.80;;;;;;5087039;28;20036;-75
2022/03/11 07:54:06;;;;;;;25.90;16.87;;;8.30;94.80;;;;;;5084979;28;20082;-75
2022/03/11 07:56:32;;;;;;;29.00;16.83;;;8.30;94.10;;;;;;5086621;28;20060;-75
2022/03/11 07:58:59;;;;;;;30.33;17.23;;;8.00;94.10;;;;;;5086086;28;20427;-75
2022/03/11 08:01:26;;;;;;;25.17;16.47;;;7.70;94.30;;;;;;5082161;28;20040;-76
2022/03/11 08:03:52;;;;;;;27.27;17.83;;;7.50;94.10;;;;;;5087619;28;20043;-75
2022/03/11 08:06:19;;;;;;;26.13;16.50;;;7.30;94.60;;;;;;5085637;28;20040;-76
2022/03/11 08:08:45;;;;;;;25.83;16.00;;;7.20;94.80;;;;;;5080818;28;20135;-75
2022/03/11 08:11:13;;;;;;;26.47;16.77;;;7.10;95.00;;;;;;5094189;28;20051;-75
2022/03/11 08:13:39;;;;;;;26.77;16.70;;;7.00;95.40;;;;;;5088696;28;20052;-76
2022/03/11 08:16:06;;;;;;;27.23;17.03;;;7.00;95.70;;;;;;5093232;28;20038;-77
2022/03/11 08:18:33;;;;;;;26.57;16.13;;;6.90;95.70;;;;;;5120584;28;20040;-75
2022/03/11 08:20:58;;;;;;;24.73;14.63;;;6.90;95.70;;;;;;5095210;28;20044;-76
2022/03/11 08:23:25;;;;;;;27.80;17.47;;;6.80;95.50;;;;;;5100065;28;20166;-75
2022/03/11 08:25:51;;;;;;;22.93;14.90;;;6.80;95.80;;;;;;5101035;28;20043;-75
2022/03/11 08:28:22;;;;;;;24.87;16.70;;;6.80;95.80;;;;;;5061205;28;20478;-76
2022/03/11 08:30:48;;;;;;;27.57;16.80;;;6.90;96.20;;;;;;5097195;28;20392;-75
2022/03/11 08:33:22;;;;;;;24.20;17.00;;;7.20;95.80;;;;;;5091953;28;20040;-75
2022/03/11 08:35:48;;;;;;;29.47;17.17;;;7.60;94.70;;;;;;5098850;28;20058;-75
2022/03/11 08:38:15;;;;;;;27.83;16.97;;;7.70;94.70;;;;;;5097938;28;20048;-76
2022/03/11 08:40:44;;;;;;;26.57;17.27;;;7.90;93.80;;;;;;5101744;28;20066;-75
2022/03/11 08:43:09;;;;;;;25.07;16.50;;;8.00;94.00;;;;;;5100240;28;20112;-77
2022/03/11 08:45:36;;;;;;;25.10;16.53;;;8.30;93.50;;;;;;5096139;28;20542;-75
2022/03/11 08:48:02;;;;;;;27.50;19.00;;;8.40;92.80;;;;;;5096854;28;20047;-76
2022/03/11 08:50:28;;;;;;;24.70;17.03;;;8.70;92.60;;;;;;5102512;28;20024;-75
2022/03/11 08:52:54;;;;;;;23.00;16.47;;;9.10;91.80;;;;;;5094421;28;20139;-77
2022/03/11 08:55:20;;;;;;;27.27;17.37;;;9.50;91.00;;;;;;5104972;28;20498;-77
2022/03/11 08:57:51;;;;;;;24.73;17.07;;;9.70;90.70;;;;;;5094557;28;20058;-75
2022/03/11 09:00:19;;;;;;;27.00;16.90;;;9.70;89.90;;;;;;5097267;28;20070;-74
2022/03/11 09:02:46;;;;;;;21.37;11.80;;;9.60;88.90;;;;;;5097986;28;20068;-75
2022/03/11 09:05:17;;;;;;;27.07;16.27;;;9.40;88.00;;;;;;5090386;28;20123;-76
2022/03/11 09:07:43;;;;;;;26.30;17.23;;;9.20;88.60;;;;;;5096671;28;20051;-75
2022/03/11 09:10:10;;;;;;;26.10;17.60;;;9.20;89.20;;;;;;5092487;28;20504;-75
2022/03/11 09:12:36;;;;;;;26.13;18.13;;;9.30;88.60;;;;;;5102389;28;20044;-75
2022/03/11 09:15:04;;;;;;;28.77;17.00;;;9.20;89.40;;;;;;5097614;28;20100;-74
2022/03/11 09:17:30;;;;;;;24.57;17.07;;;9.40;88.50;;;;;;5096576;28;20112;-75
2022/03/11 09:19:56;;;;;;;23.33;15.40;;;9.50;88.10;;;;;;5097149;28;20083;-75
2022/03/11 09:22:22;;;;;;;26.47;18.20;;;9.70;87.00;;;;;;5111067;27;20079;-76
2022/03/11 09:24:48;;;;;;;23.83;15.20;;;9.80;87.60;;;;;;5097110;28;20626;-77
2022/03/11 09:27:16;;;;;;;26.60;17.30;;;10.10;84.00;;;;;;5092344;28;20503;-77
2022/03/11 09:29:42;;;;;;;23.27;17.10;;;10.50;83.50;;;;;;5090373;28;20593;-77
2022/03/11 09:32:10;;;;;;;23.20;16.40;;;11.50;81.10;;;;;;5087313;28;20040;-76
2022/03/11 09:34:37;;;;;;;24.43;16.87;;;12.60;77.60;;;;;;5090145;28;20056;-77
2022/03/11 09:37:03;;;;;;;25.37;17.20;;;13.50;75.20;;;;;;5095362;28;20047;-76
2022/03/11 09:39:29;;;;;;;21.53;16.70;;;14.50;69.40;;;;;;5091591;28;20047;-75
2022/03/11 09:41:55;;;;;;;25.50;17.20;;;15.00;60.20;;;;;;5093752;28;20033;-76
2022/03/11 09:44:21;;;;;;;20.87;16.30;;;15.60;61.00;;;;;;5093490;28;20504;-75
2022/03/11 09:46:47;;;;;;;23.63;17.87;;;16.50;57.90;;;;;;5089422;28;20044;-77
2022/03/11 09:49:15;;;;;;;22.90;17.00;;;17.10;55.50;;;;;;5088019;28;20043;-76
2022/03/11 09:51:42;;;;;;;23.50;16.90;;;17.60;53.50;;;;;;5090644;28;20060;-76
2022/03/11 09:54:09;;;;;;;25.67;16.80;;;18.10;48.60;;;;;;5086635;28;20044;-76
2022/03/11 09:56:38;;;;;;;23.53;16.37;;;17.90;46.40;;;;;;5090207;28;20028;-75
2022/03/11 09:59:03;;;;;;;20.37;15.67;;;18.00;45.60;;;;;;5090548;28;20544;-79
2022/03/11 10:01:30;;;;;;;24.27;17.63;;;17.80;43.20;;;;;;5091374;28;20040;-76
2022/03/11 10:03:56;;;;;;;21.20;16.80;;;17.40;44.90;;;;;;5094793;28;20062;-76
2022/03/11 10:06:39;;;;;;;23.07;17.70;;;18.00;46.00;;;;;;5085597;28;20044;-78
2022/03/11 10:09:05;;;;;;;25.77;17.50;;;18.40;44.10;;;;;;5088833;28;20071;-75
2022/03/11 10:11:31;;;;;;;22.93;17.17;;;18.40;43.20;;;;;;5084653;28;20503;-76
2022/03/11 10:14:05;;;;;;;22.57;17.93;;;18.50;43.10;;;;;;5082990;28;21253;-75
2022/03/11 10:16:32;;;;;;;22.05;17.63;;;18.80;43.50;;;;;;5090611;28;20433;-77
2022/03/11 10:18:59;;;;;;;21.20;16.33;;;19.20;42.60;;;;;;5087832;28;20040;-75
2022/03/11 10:21:31;;;;;;;20.60;17.37;;;19.60;42.50;;;;;;5091628;28;20090;-75
2022/03/11 10:23:59;;;;;;;23.17;17.53;;;20.10;40.70;;;;;;5090164;28;20036;-77
2022/03/11 10:26:34;;;;;;;22.70;17.50;;;20.40;40.10;;;;;;5102733;28;20040;-80
2022/03/11 10:29:01;;;;;;;21.07;17.03;;;20.70;39.90;;;;;;5092387;28;20040;-75
2022/03/11 10:31:31;;;;;;;23.13;17.37;;;20.50;39.70;;;;;;5092454;28;20043;-76
2022/03/11 10:34:15;;;;;;;21.27;16.87;;;20.20;38.10;;;;;;5089153;28;20089;-79
2022/03/11 10:36:55;;;;;;;19.92;16.35;;;20.00;39.00;;;;;;5085834;28;20044;-77
2022/03/11 10:39:27;;;;;;;23.63;17.93;;;19.40;37.80;;;;;;5090277;28;20068;-76
2022/03/11 10:41:53;;;;;;;21.80;16.47;;;19.20;38.40;;;;;;5085820;28;20489;-76
2022/03/11 10:44:21;;;;;;;19.67;16.60;;;19.20;38.50;;;;;;5083962;28;20046;-76
2022/03/11 10:46:47;;;;;;;25.17;17.27;;;19.20;39.70;;;;;;5085428;28;20052;-77
2022/03/11 10:49:23;;;;;;;20.43;16.87;;;19.20;38.70;;;;;;5092124;28;20046;-77
2022/03/11 10:51:52;;;;;;;23.23;17.40;;;18.90;38.20;;;;;;5084750;28;20135;-78
2022/03/11 10:54:24;;;;;;;22.43;17.17;;;18.40;39.00;;;;;;5086878;28;20047;-77
2022/03/11 10:56:52;;;;;;;20.30;16.43;;;18.40;38.70;;;;;;5087452;28;20040;-76
2022/03/11 10:59:24;;;;;;;24.97;16.90;;;18.30;38.20;;;;;;5071954;28;20491;-76
2022/03/11 11:01:52;;;;;;;22.30;16.77;;;18.20;39.20;;;;;;5088268;28;20052;-83
2022/03/11 11:04:18;;;;;;;23.63;16.57;;;18.20;39.30;;;;;;5090330;28;20043;-76
2022/03/11 11:06:45;;;;;;;19.97;16.57;;;18.00;38.70;;;;;;5085189;28;20115;-76
2022/03/11 11:09:12;;;;;;;23.00;17.30;;;18.10;40.00;;;;;;5086539;28;20077;-78
2022/03/11 11:11:39;;;;;;;21.73;16.30;;;18.40;39.50;;;;;;5092024;28;20573;-77
2022/03/11 11:14:08;;;;;;;25.20;16.93;;;18.40;40.30;;;;;;5080463;28;20063;-76
2022/03/11 11:16:40;;;;;;;19.60;16.33;;;18.70;40.40;;;;;;5088275;28;20040;-76
2022/03/11 11:19:07;;;;;;;23.37;16.53;;;19.00;39.50;;;;;;5100055;28;20032;-76
2022/03/11 11:21:34;;;;;;;20.30;16.53;;;19.20;39.80;;;;;;5096600;28;20078;-75
2022/03/11 11:24:01;;;;;;;25.10;15.47;;;19.20;37.60;;;;;;5091728;28;20050;-77
2022/03/11 11:26:27;;;;;;;24.37;16.63;;;19.10;36.80;;;;;;5090022;28;20044;-79
2022/03/11 11:28:55;;;;;;;20.77;15.77;;;18.50;38.30;;;;;;5103001;28;20054;-75
2022/03/11 11:31:23;;;;;;;22.60;15.77;;;18.10;38.10;;;;;;5091098;28;20431;-76
2022/03/11 11:33:50;;;;;;;20.63;16.13;;;17.70;38.50;;;;;;5091253;28;20097;-76
2022/03/11 11:36:34;;;;;;;24.50;14.83;;;17.60;39.40;;;;;;5097677;28;20040;-77
2022/03/11 11:39:03;;;;;;;21.27;16.35;;;17.70;38.90;;;;;;5088985;28;20171;-80
2022/03/11 11:41:30;;;;;;;20.83;15.37;;;18.00;40.60;;;;;;5106581;28;20032;-76
2022/03/11 11:43:59;;;;;;;18.17;14.90;;;18.30;39.40;;;;;;5105710;28;20070;-75
2022/03/11 11:46:27;;;;;;;18.33;14.07;;;18.60;38.70;;;;;;5094245;28;20392;-78
2022/03/11 11:49:02;;;;;;;18.93;14.80;;;18.80;38.10;;;;;;5100966;28;20085;-77
2022/03/11 11:52:00;;;;;;;21.63;15.17;;;19.00;37.70;;;;;;5101480;28;20491;-77
2022/03/11 11:54:37;;;;;;;19.87;14.23;;;19.20;37.70;;;;;;5094753;28;20040;-79
2022/03/11 11:57:05;;;;;;;20.93;14.87;;;19.10;36.90;;;;;;5094677;28;20043;-76
2022/03/11 11:59:37;;;;;;;20.50;14.57;;;18.70;36.60;;;;;;5092311;28;20047;-75
2022/03/11 12:02:31;;;;;;;17.97;15.03;;;18.40;37.80;;;;;;5100443;28;20031;-76
2022/03/11 12:04:59;;;;;;;20.87;14.90;;;17.90;37.80;;;;;;5087660;28;20044;-76
2022/03/11 12:07:47;;;;;;;19.90;14.60;;;17.90;38.70;;;;;;5085975;28;20430;-77
2022/03/11 12:10:24;;;;;;;17.87;13.60;;;18.10;38.30;;;;;;5087695;28;20055;-75
2022/03/11 12:13:04;;;;;;;16.93;13.50;;;17.80;37.10;;;;;;5086210;28;20083;-83
2022/03/11 12:15:37;;;;;;;21.33;14.40;;;17.50;38.30;;;;;;5072163;28;20483;-76
2022/03/11 12:18:37;;;;;;;18.77;13.70;;;17.60;38.40;;;;;;5086540;28;20403;-76
2022/03/11 12:21:04;;;;;;;18.10;13.90;;;17.50;37.80;;;;;;5088225;28;20047;-77
2022/03/11 12:23:32;;;;;;;23.47;14.63;;;17.40;38.40;;;;;;5091619;28;20044;-77
2022/03/11 12:26:08;;;;;;;21.97;13.77;;;17.30;38.20;;;;;;5091445;28;20081;-77
2022/03/11 12:28:35;;;;;;;20.87;14.53;;;16.90;38.10;;;;;;5083904;28;20088;-75
2022/03/11 12:31:04;;;;;;;19.17;14.63;;;16.80;39.50;;;;;;5087978;28;21577;-80
2022/03/11 12:33:38;;;;;;;18.00;14.00;;;16.70;39.40;;;;;;5072855;28;20048;-76
2022/03/11 12:36:07;;;;;;;19.47;13.73;;;16.60;39.20;;;;;;5088429;28;20032;-76